Terminal Aerodrome Forecast
Issued by NWS Binghamton, NY

Home | Current Version | Previous Version | Text Only | Print | Product List | Glossary On
Versions: 1 2 3 4 5 6 7 8 9 10 11 12 13 14 15 16 17 18 19 20
000
FTUS41 KBGM 200143 AAA
TAFBGM
TAF AMD
KBGM 200143Z 2002/2024 18010G20KT 5SM -RA OVC002 WS020/23040KT
      TEMPO 2002/2005 P6SM NSW SCT002 OVC008
     FM200500 20010KT 4SM BR OVC015 WS020/24045KT
     FM201100 22010KT P6SM OVC015 WS020/25040KT
     FM201300 20009KT P6SM OVC035 WS020/25040KT
     FM201900 21010G18KT P6SM BKN035=

USA.gov is the U.S. government's official web portal to all federal, state and local government web resources and services.